Time;durP1;ratioP1;P1;durP2;ratioP2;P2;SDS_P1;SDS_P2;PMS_P1;PMS_P2;Temp;Humidity;BMP_temperature;BMP_pressure;BME280_temperature;BME280_humidity;BME280_pressure;Samples;Min_cycle;Max_cycle;Signal;HPM_P1;HPM_P2
2023/06/27 00:01:04;;;;;;;7.20;2.30;;;18.30;1.00;;;;;;5031928;28;20381;-56
2023/06/27 00:03:33;;;;;;;8.07;2.47;;;18.40;1.00;;;;;;5030897;28;20506;-56
2023/06/27 00:06:00;;;;;;;6.43;2.33;;;18.30;1.00;;;;;;5047273;28;20045;-55
2023/06/27 00:08:30;;;;;;;7.53;2.40;;;18.10;1.00;;;;;;5031942;28;20121;-56
2023/06/27 00:10:55;;;;;;;4.55;2.20;;;18.20;1.00;;;;;;5039346;28;20091;-56
2023/06/27 00:13:21;;;;;;;8.18;2.40;;;18.30;1.00;;;;;;5031061;28;20542;-56
2023/06/27 00:15:48;;;;;;;6.60;2.22;;;18.30;1.00;;;;;;5032117;28;20037;-56
2023/06/27 00:18:17;;;;;;;6.63;2.60;;;18.30;1.00;;;;;;5032075;28;20034;-56
2023/06/27 00:20:43;;;;;;;6.15;2.55;;;18.30;1.00;;;;;;5031745;28;20052;-55
2023/06/27 00:23:16;;;;;;;7.30;2.53;;;18.30;1.00;;;;;;5031896;28;20033;-56
2023/06/27 00:25:43;;;;;;;8.18;2.38;;;18.30;1.00;;;;;;5031614;28;20048;-56
2023/06/27 00:28:09;;;;;;;5.13;2.13;;;18.20;1.00;;;;;;5031835;28;20045;-56
2023/06/27 00:30:34;;;;;;;4.95;2.47;;;18.20;1.00;;;;;;5031140;28;20526;-56
2023/06/27 00:33:00;;;;;;;9.50;2.50;;;18.20;1.00;;;;;;5030245;28;20446;-56
2023/06/27 00:35:26;;;;;;;7.07;2.47;;;18.20;1.00;;;;;;5031408;28;20415;-56
2023/06/27 00:37:52;;;;;;;5.63;2.45;;;18.20;1.00;;;;;;5030306;28;20419;-56
2023/06/27 00:40:18;;;;;;;6.65;2.40;;;18.20;1.00;;;;;;5031451;28;20056;-56
2023/06/27 00:42:43;;;;;;;7.13;2.80;;;18.30;1.00;;;;;;5031174;28;20057;-56
2023/06/27 00:45:09;;;;;;;7.72;3.20;;;18.30;1.00;;;;;;5031289;28;20053;-56
2023/06/27 00:47:35;;;;;;;4.20;2.28;;;18.30;2.90;;;;;;5031051;28;20049;-56
2023/06/27 00:50:01;;;;;;;8.07;2.95;;;18.30;8.10;;;;;;5031236;28;20042;-56
2023/06/27 00:52:27;;;;;;;5.93;2.60;;;18.30;11.00;;;;;;5031182;28;20033;-56
2023/06/27 00:54:53;;;;;;;9.98;2.97;;;18.30;14.60;;;;;;5031304;28;20044;-56
2023/06/27 00:57:19;;;;;;;7.18;3.20;;;18.20;11.90;;;;;;5030902;28;20030;-56
2023/06/27 00:59:45;;;;;;;8.00;3.00;;;18.20;13.70;;;;;;5046417;28;20084;-56
2023/06/27 01:02:11;;;;;;;6.82;2.53;;;18.20;16.40;;;;;;5030695;28;20041;-56
2023/06/27 01:04:39;;;;;;;6.65;2.65;;;18.20;1.00;;;;;;5031160;28;20047;-56
2023/06/27 01:07:11;;;;;;;5.20;2.28;;;18.20;2.20;;;;;;5030939;28;20107;-56
2023/06/27 01:09:51;;;;;;;10.15;2.67;;;18.20;1.00;;;;;;5030648;28;20041;-56
2023/06/27 01:12:29;;;;;;;6.85;2.45;;;18.20;1.00;;;;;;5030316;28;20041;-56
2023/06/27 01:14:57;;;;;;;8.55;2.30;;;18.20;1.00;;;;;;5031206;28;20044;-56
2023/06/27 01:17:24;;;;;;;4.70;2.20;;;18.20;1.00;;;;;;5029519;28;20065;-56
2023/06/27 01:19:52;;;;;;;6.60;2.40;;;18.20;1.00;;;;;;5031135;28;20517;-56
2023/06/27 01:22:29;;;;;;;9.00;2.85;;;18.20;1.00;;;;;;5030638;28;20071;-57
2023/06/27 01:24:55;;;;;;;7.63;2.92;;;18.20;1.00;;;;;;5030505;28;20499;-56
2023/06/27 01:27:22;;;;;;;5.82;2.67;;;18.10;1.00;;;;;;5030235;28;20511;-56
2023/06/27 01:29:48;;;;;;;6.85;2.50;;;18.20;9.30;;;;;;5030714;28;20056;-56
2023/06/27 01:32:42;;;;;;;6.72;3.05;;;18.10;19.60;;;;;;5029039;28;20041;-56
2023/06/27 01:35:34;;;;;;;7.53;3.88;;;18.10;40.90;;;;;;5029814;28;20045;-56
2023/06/27 01:38:06;;;;;;;8.55;4.40;;;18.10;66.20;;;;;;5030403;28;20388;-56
2023/06/27 01:40:34;;;;;;;9.60;6.18;;;18.10;72.40;;;;;;5030340;28;20049;-56
2023/06/27 01:43:08;;;;;;;12.02;7.88;;;18.10;93.70;;;;;;5029740;28;20053;-56
2023/06/27 01:45:34;;;;;;;14.90;9.63;;;18.10;99.90;;;;;;5030300;28;20045;-56
2023/06/27 01:48:00;;;;;;;9.13;7.68;;;18.00;99.90;;;;;;5029885;28;20407;-56
2023/06/27 01:50:26;;;;;;;12.55;8.07;;;18.10;99.90;;;;;;5030196;28;20581;-56
2023/06/27 01:52:52;;;;;;;11.07;7.70;;;18.00;99.90;;;;;;5029860;28;20037;-56
2023/06/27 01:55:18;;;;;;;11.85;5.38;;;18.10;99.90;;;;;;5029935;28;20064;-56
2023/06/27 01:57:44;;;;;;;7.03;4.63;;;18.00;99.90;;;;;;5029726;28;20041;-56
2023/06/27 02:00:11;;;;;;;8.07;3.88;;;18.10;99.90;;;;;;5029980;28;20056;-56
2023/06/27 02:02:36;;;;;;;12.35;7.65;;;18.10;99.90;;;;;;5029795;28;20045;-55
2023/06/27 02:05:02;;;;;;;7.70;6.03;;;18.10;99.90;;;;;;5029754;28;20388;-56
2023/06/27 02:07:28;;;;;;;8.23;4.15;;;18.00;99.90;;;;;;5030013;28;20037;-56
2023/06/27 02:09:53;;;;;;;11.50;3.72;;;17.90;99.90;;;;;;5024266;28;20156;-56
2023/06/27 02:12:19;;;;;;;6.88;3.03;;;17.90;97.40;;;;;;5020945;28;20502;-56
2023/06/27 02:14:45;;;;;;;7.93;4.57;;;18.00;93.00;;;;;;5029926;28;20045;-57
2023/06/27 02:17:10;;;;;;;5.97;3.22;;;18.00;98.30;;;;;;5029554;28;20053;-56
2023/06/27 02:19:36;;;;;;;8.55;3.72;;;18.00;95.20;;;;;;5030021;28;20042;-56
2023/06/27 02:22:02;;;;;;;9.07;4.88;;;18.00;74.50;;;;;;5045099;28;20052;-56
2023/06/27 02:24:28;;;;;;;11.15;4.72;;;18.00;86.20;;;;;;5029871;28;20044;-56
2023/06/27 02:26:53;;;;;;;7.47;3.55;;;17.90;86.90;;;;;;5029399;28;20041;-56
2023/06/27 02:29:19;;;;;;;8.00;3.10;;;18.00;94.30;;;;;;5029774;28;20491;-56
2023/06/27 02:31:44;;;;;;;9.63;2.80;;;18.00;81.30;;;;;;5029455;28;20115;-56
2023/06/27 02:34:10;;;;;;;11.23;2.90;;;17.90;54.50;;;;;;5029908;28;20033;-56
2023/06/27 02:36:35;;;;;;;7.40;3.55;;;18.00;49.30;;;;;;5032006;28;20038;-56
2023/06/27 02:39:01;;;;;;;7.95;3.08;;;18.00;58.80;;;;;;5032880;28;20029;-56
2023/06/27 02:41:27;;;;;;;9.38;2.83;;;17.90;48.70;;;;;;5025150;28;20452;-56
2023/06/27 02:43:52;;;;;;;7.35;2.80;;;18.00;35.30;;;;;;5033381;28;20405;-56
2023/06/27 02:46:18;;;;;;;6.82;2.50;;;17.90;38.10;;;;;;5033853;28;20034;-56
2023/06/27 02:48:44;;;;;;;7.47;2.90;;;18.00;33.50;;;;;;5033676;28;20045;-56
2023/06/27 02:51:09;;;;;;;10.52;2.90;;;18.00;36.50;;;;;;5033379;28;20108;-55
2023/06/27 02:53:35;;;;;;;8.50;3.08;;;17.90;36.40;;;;;;5033428;28;20084;-56
2023/06/27 02:56:02;;;;;;;7.60;3.33;;;18.00;42.30;;;;;;5033667;28;20029;-56
2023/06/27 02:58:32;;;;;;;6.22;2.65;;;17.90;56.40;;;;;;5033832;28;20040;-56
2023/06/27 03:00:59;;;;;;;5.32;2.85;;;18.00;36.50;;;;;;5034577;28;20495;-57
2023/06/27 03:03:25;;;;;;;8.13;3.20;;;17.90;35.70;;;;;;5031986;28;20107;-56
2023/06/27 03:05:51;;;;;;;8.80;4.25;;;17.90;42.70;;;;;;5033101;28;20053;-56
2023/06/27 03:08:16;;;;;;;11.23;4.50;;;17.90;78.60;;;;;;5033552;28;20041;-56
2023/06/27 03:10:42;;;;;;;12.82;3.78;;;17.90;95.00;;;;;;5033812;28;20491;-56
2023/06/27 03:13:08;;;;;;;10.70;3.00;;;17.90;86.90;;;;;;5033097;28;20484;-56
2023/06/27 03:15:34;;;;;;;9.63;3.20;;;17.90;75.20;;;;;;5033058;28;20041;-56
2023/06/27 03:18:00;;;;;;;6.97;3.10;;;17.90;58.10;;;;;;5065339;28;20103;-56
2023/06/27 03:20:25;;;;;;;9.77;3.67;;;17.90;76.60;;;;;;5033136;28;20045;-56
2023/06/27 03:22:51;;;;;;;10.20;5.35;;;18.00;78.10;;;;;;5031639;28;20041;-56
2023/06/27 03:25:16;;;;;;;8.70;3.90;;;17.90;91.90;;;;;;5032908;28;20152;-57
2023/06/27 03:27:42;;;;;;;13.55;11.13;;;17.80;99.90;;;;;;5032847;28;20067;-57
2023/06/27 03:30:09;;;;;;;18.38;16.75;;;17.70;99.90;;;;;;5032822;28;20117;-56
2023/06/27 03:32:35;;;;;;;18.63;16.95;;;17.80;99.90;;;;;;5032568;28;20530;-57
2023/06/27 03:35:00;;;;;;;15.07;10.70;;;17.70;99.90;;;;;;5032873;28;20038;-56
2023/06/27 03:37:26;;;;;;;15.45;8.95;;;16.70;99.90;;;;;;5032426;28;20506;-57
2023/06/27 03:39:52;;;;;;;15.52;7.30;;;17.70;99.90;;;;;;5019031;28;20046;-56
2023/06/27 03:42:18;;;;;;;14.85;13.10;;;17.70;99.90;;;;;;5025880;28;20061;-56
2023/06/27 03:44:44;;;;;;;17.23;15.48;;;17.70;99.90;;;;;;5031230;28;20037;-56
2023/06/27 03:47:09;;;;;;;22.02;20.20;;;17.70;99.90;;;;;;5032112;28;20037;-56
2023/06/27 03:49:35;;;;;;;15.52;14.15;;;17.70;99.90;;;;;;5032592;28;20072;-56
2023/06/27 03:52:00;;;;;;;11.27;6.65;;;17.60;99.90;;;;;;5032321;28;20046;-56
2023/06/27 03:54:26;;;;;;;17.02;10.85;;;17.70;99.90;;;;;;5032436;28;20064;-56
2023/06/27 03:56:51;;;;;;;13.60;12.07;;;17.70;99.90;;;;;;5032176;28;20039;-56
2023/06/27 03:59:17;;;;;;;16.02;14.52;;;17.70;99.90;;;;;;5032303;28;20047;-56
2023/06/27 04:01:43;;;;;;;11.70;10.48;;;17.70;99.90;;;;;;5047298;28;20033;-56
2023/06/27 04:04:08;;;;;;;29.23;26.83;;;17.70;99.90;;;;;;5032384;28;20033;-57
2023/06/27 04:06:34;;;;;;;40.83;37.60;;;17.70;99.90;;;;;;5032194;28;20037;-56
2023/06/27 04:09:03;;;;;;;41.17;38.10;;;17.70;99.90;;;;;;5032177;28;20045;-56
2023/06/27 04:11:28;;;;;;;41.63;37.90;;;17.70;99.90;;;;;;5031752;28;20802;-56
2023/06/27 04:13:56;;;;;;;44.10;40.38;;;17.70;99.90;;;;;;5031937;28;20120;-56
2023/06/27 04:16:22;;;;;;;44.10;40.28;;;17.70;99.90;;;;;;5030586;28;20139;-56
2023/06/27 04:18:48;;;;;;;43.33;39.90;;;17.70;99.90;;;;;;5032190;28;20595;-56
2023/06/27 04:21:13;;;;;;;41.72;38.20;;;17.80;99.90;;;;;;5047242;28;20049;-56
2023/06/27 04:23:39;;;;;;;42.03;38.72;;;17.80;99.90;;;;;;5031793;28;20049;-56
2023/06/27 04:26:07;;;;;;;44.50;40.80;;;17.80;99.90;;;;;;5029356;28;20037;-57
2023/06/27 04:28:34;;;;;;;41.10;37.70;;;17.80;99.90;;;;;;5031681;28;20453;-56
2023/06/27 04:31:00;;;;;;;41.90;38.50;;;17.80;99.90;;;;;;5031524;28;20136;-56
2023/06/27 04:33:29;;;;;;;45.58;42.03;;;17.90;99.90;;;;;;5031698;28;20049;-56
2023/06/27 04:36:00;;;;;;;39.13;35.80;;;17.90;99.90;;;;;;5031635;28;20524;-56
2023/06/27 04:38:27;;;;;;;41.95;38.55;;;17.90;99.90;;;;;;5063357;28;20506;-56
2023/06/27 04:40:52;;;;;;;43.50;40.17;;;17.90;99.90;;;;;;5031501;28;20052;-56
2023/06/27 04:43:18;;;;;;;37.90;35.13;;;18.00;99.90;;;;;;5031021;28;20054;-57
2023/06/27 04:45:43;;;;;;;28.08;25.95;;;17.90;99.90;;;;;;5031139;28;20095;-56
2023/06/27 04:48:09;;;;;;;25.52;23.42;;;17.90;99.90;;;;;;5031352;28;20144;-56
2023/06/27 04:50:35;;;;;;;24.63;22.65;;;18.00;99.90;;;;;;5030009;28;20049;-57
2023/06/27 04:53:03;;;;;;;27.75;25.17;;;18.10;99.90;;;;;;5031215;28;20030;-56
2023/06/27 04:55:29;;;;;;;26.10;23.77;;;18.10;99.90;;;;;;5031497;28;20049;-56
2023/06/27 04:57:54;;;;;;;19.80;18.20;;;18.10;99.90;;;;;;5030846;28;20643;-57
2023/06/27 05:00:20;;;;;;;18.52;16.67;;;18.20;99.90;;;;;;5030829;28;20044;-56
2023/06/27 05:02:46;;;;;;;19.38;17.00;;;18.20;99.90;;;;;;5030822;28;20046;-57
2023/06/27 05:05:11;;;;;;;26.20;23.77;;;18.40;99.90;;;;;;5031140;28;20050;-57
2023/06/27 05:07:37;;;;;;;17.63;16.13;;;18.30;99.90;;;;;;5029658;28;20057;-57
2023/06/27 05:10:03;;;;;;;16.75;10.98;;;18.40;99.90;;;;;;5030820;28;20501;-57
2023/06/27 05:12:28;;;;;;;20.65;18.85;;;18.40;99.90;;;;;;5030639;28;20037;-57
2023/06/27 05:14:54;;;;;;;13.38;9.35;;;18.50;99.90;;;;;;5030953;28;20527;-57
2023/06/27 05:17:19;;;;;;;11.52;9.13;;;18.60;99.90;;;;;;5030887;28;20037;-57
2023/06/27 05:19:45;;;;;;;11.77;6.53;;;18.70;93.60;;;;;;5030870;28;20502;-56
2023/06/27 05:22:10;;;;;;;14.43;10.20;;;18.70;79.60;;;;;;5030787;28;20065;-56
2023/06/27 05:24:36;;;;;;;17.15;15.50;;;19.10;91.30;;;;;;5031079;28;20042;-56
2023/06/27 05:27:03;;;;;;;16.70;11.40;;;18.80;92.50;;;;;;5025520;28;20037;-56
2023/06/27 05:29:28;;;;;;;16.35;14.80;;;18.90;94.70;;;;;;5030797;28;20049;-56
2023/06/27 05:31:54;;;;;;;14.80;12.45;;;19.00;99.90;;;;;;5030992;28;20044;-57
2023/06/27 05:34:19;;;;;;;12.52;11.27;;;19.00;99.90;;;;;;5029847;28;20025;-57
2023/06/27 05:36:45;;;;;;;18.20;16.45;;;19.00;99.90;;;;;;5030677;28;20099;-56
2023/06/27 05:39:10;;;;;;;19.05;17.05;;;19.10;99.90;;;;;;5030563;28;20080;-56
2023/06/27 05:41:36;;;;;;;23.00;19.70;;;19.10;99.90;;;;;;5030455;28;20041;-56
2023/06/27 05:44:02;;;;;;;18.52;16.77;;;19.20;99.90;;;;;;5030339;28;20072;-56
2023/06/27 05:46:27;;;;;;;19.65;17.92;;;19.20;99.90;;;;;;5030395;28;20419;-56
2023/06/27 05:48:53;;;;;;;17.73;15.18;;;19.20;99.90;;;;;;5030385;28;20435;-57
2023/06/27 05:51:19;;;;;;;15.02;13.38;;;19.30;99.90;;;;;;5030405;28;20041;-56
2023/06/27 05:53:44;;;;;;;18.05;13.30;;;19.40;99.90;;;;;;5030544;28;20464;-56
2023/06/27 05:56:10;;;;;;;17.95;13.85;;;19.30;99.90;;;;;;5030565;28;20113;-56
2023/06/27 05:58:36;;;;;;;20.60;16.10;;;19.50;99.90;;;;;;5030206;28;20554;-57
2023/06/27 06:01:01;;;;;;;20.65;12.90;;;19.40;99.90;;;;;;5030315;28;20449;-56
2023/06/27 06:03:27;;;;;;;14.82;13.10;;;19.60;99.90;;;;;;5029992;28;20044;-56
2023/06/27 06:05:52;;;;;;;17.63;15.90;;;19.50;99.90;;;;;;5030228;28;20048;-56
2023/06/27 06:08:19;;;;;;;24.17;21.80;;;19.50;99.90;;;;;;5028644;28;20494;-56
2023/06/27 06:10:50;;;;;;;20.27;18.40;;;19.40;99.90;;;;;;5028942;28;20216;-57
2023/06/27 06:13:15;;;;;;;16.60;14.90;;;19.50;99.90;;;;;;5029791;28;20057;-56
2023/06/27 06:15:41;;;;;;;18.85;17.10;;;19.50;99.90;;;;;;5029885;28;20407;-57
2023/06/27 06:18:07;;;;;;;20.75;18.13;;;19.40;99.90;;;;;;5028628;28;20049;-57
2023/06/27 06:20:32;;;;;;;17.13;15.43;;;19.40;99.90;;;;;;5062059;28;20053;-56
2023/06/27 06:22:59;;;;;;;24.83;22.73;;;19.40;99.90;;;;;;5028315;28;20041;-56
2023/06/27 06:25:26;;;;;;;24.83;22.45;;;19.30;99.90;;;;;;5029573;28;20049;-57
2023/06/27 06:27:51;;;;;;;30.92;28.23;;;19.30;99.90;;;;;;5029396;28;20037;-60
2023/06/27 06:30:17;;;;;;;26.70;24.35;;;19.20;99.90;;;;;;5025346;28;20049;-60
2023/06/27 06:32:42;;;;;;;27.17;24.73;;;19.20;99.90;;;;;;5014063;28;20037;-64
2023/06/27 06:35:08;;;;;;;12.82;10.05;;;19.30;99.90;;;;;;5009964;28;20404;-59
2023/06/27 06:37:34;;;;;;;24.40;21.90;;;19.20;99.90;;;;;;5022727;28;20045;-56
2023/06/27 06:39:59;;;;;;;27.25;24.60;;;19.20;99.90;;;;;;5029742;28;20046;-56
2023/06/27 06:42:25;;;;;;;27.30;25.08;;;19.10;99.90;;;;;;5044534;28;20053;-56
2023/06/27 06:44:50;;;;;;;24.92;22.83;;;19.10;99.90;;;;;;5027268;28;20080;-56
2023/06/27 06:47:16;;;;;;;27.15;24.75;;;19.10;99.90;;;;;;5028036;28;20068;-56
2023/06/27 06:49:42;;;;;;;25.55;23.25;;;19.10;99.90;;;;;;5020469;28;20041;-56
2023/06/27 06:52:07;;;;;;;29.10;26.08;;;19.10;99.90;;;;;;5027856;28;20121;-57
2023/06/27 06:54:33;;;;;;;32.05;29.35;;;19.10;99.90;;;;;;5029318;28;20460;-56
2023/06/27 06:56:58;;;;;;;30.38;27.48;;;19.40;99.90;;;;;;5029432;28;20065;-57
2023/06/27 06:59:24;;;;;;;34.50;31.45;;;19.00;99.90;;;;;;5013966;28;20049;-57
2023/06/27 07:01:49;;;;;;;32.17;29.38;;;19.20;99.90;;;;;;5019668;28;20036;-57
2023/06/27 07:04:15;;;;;;;37.90;34.75;;;19.20;99.90;;;;;;5031198;28;20041;-57
2023/06/27 07:06:41;;;;;;;40.35;36.53;;;19.20;99.90;;;;;;5029053;28;20492;-57
2023/06/27 07:09:06;;;;;;;43.67;39.53;;;19.20;1.00;;;;;;5012609;28;20081;-57
2023/06/27 07:11:33;;;;;;;44.72;40.67;;;19.20;1.00;;;;;;5045941;28;20057;-58
2023/06/27 07:13:59;;;;;;;43.47;39.38;;;19.20;1.00;;;;;;5034162;28;20057;-57
2023/06/27 07:16:25;;;;;;;46.47;42.25;;;19.30;1.00;;;;;;5028311;28;20130;-57
2023/06/27 07:18:51;;;;;;;47.28;42.67;;;19.20;1.00;;;;;;5018110;28;20503;-56
2023/06/27 07:21:17;;;;;;;45.63;41.33;;;19.30;1.00;;;;;;5010000;28;20046;-57
2023/06/27 07:23:42;;;;;;;46.67;42.55;;;19.20;1.00;;;;;;5025451;28;20041;-57
2023/06/27 07:26:08;;;;;;;47.72;43.08;;;19.20;1.00;;;;;;5029738;28;20045;-57
2023/06/27 07:28:33;;;;;;;46.38;42.22;;;19.30;1.00;;;;;;5023365;28;20046;-57
2023/06/27 07:30:59;;;;;;;47.90;43.13;;;19.20;1.00;;;;;;5031345;28;20033;-57
2023/06/27 07:33:24;;;;;;;45.75;41.47;;;19.30;1.00;;;;;;5032643;28;20045;-57
2023/06/27 07:35:50;;;;;;;45.40;40.70;;;19.40;15.60;;;;;;5032350;28;20099;-57
2023/06/27 07:38:16;;;;;;;43.40;39.53;;;19.50;6.50;;;;;;5064427;28;20033;-57
2023/06/27 07:40:43;;;;;;;45.35;41.42;;;19.40;37.00;;;;;;5033063;28;20391;-57
2023/06/27 07:43:08;;;;;;;42.72;38.85;;;19.50;1.00;;;;;;5064183;28;20633;-57
2023/06/27 07:45:34;;;;;;;48.28;43.80;;;19.60;1.00;;;;;;5026129;28;20093;-57
2023/06/27 07:47:59;;;;;;;47.65;43.20;;;19.60;1.00;;;;;;5032561;28;20065;-57
2023/06/27 07:50:25;;;;;;;46.65;42.35;;;19.60;1.00;;;;;;5032496;28;20056;-57
2023/06/27 07:52:50;;;;;;;48.08;43.63;;;19.60;1.00;;;;;;5032427;28;20144;-57
2023/06/27 07:55:16;;;;;;;47.63;43.40;;;19.60;1.00;;;;;;5032024;28;20033;-57
2023/06/27 07:57:42;;;;;;;48.95;44.42;;;19.60;1.00;;;;;;5032240;28;20038;-57
2023/06/27 08:00:08;;;;;;;46.22;42.13;;;19.50;1.00;;;;;;5031778;28;20072;-57
2023/06/27 08:02:33;;;;;;;48.10;43.80;;;19.60;1.00;;;;;;5032434;28;20415;-57
2023/06/27 08:04:59;;;;;;;47.92;43.50;;;19.70;1.00;;;;;;5032387;28;20037;-57
2023/06/27 08:07:24;;;;;;;48.80;44.40;;;19.80;1.00;;;;;;5032230;28;20167;-57
2023/06/27 08:09:50;;;;;;;49.45;44.90;;;19.70;1.00;;;;;;5032069;28;20395;-57
2023/06/27 08:12:15;;;;;;;49.63;45.33;;;19.70;1.00;;;;;;5032430;28;20041;-57
2023/06/27 08:14:43;;;;;;;50.70;46.22;;;19.70;1.00;;;;;;5032118;28;20038;-57
2023/06/27 08:17:08;;;;;;;51.78;46.90;;;19.60;1.00;;;;;;5032294;28;20037;-57
2023/06/27 08:19:34;;;;;;;49.90;45.17;;;19.80;1.00;;;;;;5031921;28;20133;-57
2023/06/27 08:21:59;;;;;;;52.03;47.45;;;19.80;1.00;;;;;;5031735;28;20099;-57
2023/06/27 08:24:25;;;;;;;52.53;47.65;;;19.80;1.00;;;;;;5031517;28;20042;-56
2023/06/27 08:26:54;;;;;;;51.38;46.65;;;19.80;1.00;;;;;;5037991;28;20408;-57
2023/06/27 08:29:20;;;;;;;51.92;47.22;;;19.70;1.00;;;;;;5020967;28;20037;-56
2023/06/27 08:31:46;;;;;;;49.75;45.63;;;19.80;1.00;;;;;;5031464;28;20041;-57
2023/06/27 08:34:12;;;;;;;50.55;46.28;;;19.90;99.90;;;;;;5030946;28;20163;-57
2023/06/27 08:36:38;;;;;;;51.63;47.28;;;19.80;99.90;;;;;;5016772;28;20125;-57
2023/06/27 08:39:03;;;;;;;49.97;46.08;;;19.80;99.90;;;;;;5022633;28;20467;-58
2023/06/27 08:41:29;;;;;;;56.22;51.47;;;19.70;99.90;;;;;;5030119;28;20565;-56
2023/06/27 08:43:55;;;;;;;59.83;54.70;;;19.80;99.90;;;;;;5030862;28;20384;-57
2023/06/27 08:46:22;;;;;;;48.78;44.85;;;19.80;99.90;;;;;;5031350;28;20120;-57
2023/06/27 08:48:51;;;;;;;53.22;48.97;;;19.90;99.90;;;;;;5034348;28;20080;-57
2023/06/27 08:51:18;;;;;;;58.33;53.10;;;19.90;99.90;;;;;;5031049;28;20685;-57
2023/06/27 08:53:48;;;;;;;53.47;48.92;;;20.00;99.90;;;;;;5030786;28;20107;-57
2023/06/27 08:56:17;;;;;;;55.13;50.67;;;20.10;99.90;;;;;;5031230;28;20116;-57
2023/06/27 08:58:49;;;;;;;47.38;43.75;;;20.10;99.90;;;;;;5035161;28;20103;-58
2023/06/27 09:01:15;;;;;;;41.13;37.95;;;20.20;99.90;;;;;;5031332;28;20424;-57
2023/06/27 09:03:41;;;;;;;53.28;48.78;;;20.40;99.90;;;;;;5030844;28;20072;-57
2023/06/27 09:06:07;;;;;;;59.53;54.63;;;20.60;99.90;;;;;;5031085;28;20489;-58
2023/06/27 09:08:33;;;;;;;38.17;34.75;;;20.50;99.90;;;;;;5030761;28;20125;-57
2023/06/27 09:11:00;;;;;;;47.08;43.28;;;20.80;99.90;;;;;;5031470;28;20091;-57
2023/06/27 09:13:27;;;;;;;44.33;40.83;;;20.80;99.90;;;;;;5015136;28;20452;-57
2023/06/27 09:15:53;;;;;;;34.78;31.90;;;20.80;99.90;;;;;;5031195;28;20463;-57
2023/06/27 09:18:18;;;;;;;31.67;28.90;;;20.90;99.90;;;;;;5026933;28;20052;-57
2023/06/27 09:20:44;;;;;;;41.90;38.60;;;20.80;99.90;;;;;;5015053;28;20049;-57
2023/06/27 09:23:11;;;;;;;27.77;25.30;;;20.90;99.40;;;;;;5012427;28;20432;-57
2023/06/27 09:25:36;;;;;;;31.27;28.70;;;21.10;98.80;;;;;;5030803;28;20041;-57
2023/06/27 09:28:17;;;;;;;20.70;19.00;;;21.20;81.50;;;;;;5012177;28;20121;-57
2023/06/27 09:30:56;;;;;;;19.33;13.75;;;21.00;67.20;;;;;;5030791;28;20162;-57
2023/06/27 09:33:23;;;;;;;33.00;30.35;;;21.30;50.20;;;;;;5045863;28;20038;-57
2023/06/27 09:35:50;;;;;;;20.75;17.48;;;21.30;43.70;;;;;;5030211;28;20131;-58
2023/06/27 09:38:18;;;;;;;19.65;17.77;;;21.40;47.40;;;;;;5030220;28;20049;-57
2023/06/27 09:40:44;;;;;;;21.35;19.42;;;21.60;42.00;;;;;;5030331;28;20043;-58
2023/06/27 09:43:11;;;;;;;10.75;8.25;;;21.40;26.20;;;;;;5030332;28;20128;-57
2023/06/27 09:45:36;;;;;;;12.77;11.68;;;21.30;18.30;;;;;;5013433;28;20049;-57
2023/06/27 09:48:02;;;;;;;21.17;19.27;;;21.20;12.70;;;;;;5010660;28;20046;-57
2023/06/27 09:50:29;;;;;;;19.80;17.95;;;21.20;18.70;;;;;;5028844;28;20053;-57
2023/06/27 09:52:59;;;;;;;10.05;8.02;;;21.70;27.90;;;;;;5030183;28;20079;-58
2023/06/27 09:55:25;;;;;;;10.85;3.67;;;21.50;2.50;;;;;;5030048;28;20039;-57
2023/06/27 09:57:51;;;;;;;10.07;4.85;;;21.50;1.00;;;;;;5028196;28;20033;-57
2023/06/27 10:00:20;;;;;;;10.75;4.28;;;21.30;1.00;;;;;;5030165;28;20171;-58
2023/06/27 10:02:49;;;;;;;10.70;4.97;;;21.30;1.00;;;;;;5029598;28;20403;-57
2023/06/27 10:05:15;;;;;;;11.68;9.63;;;21.10;1.00;;;;;;5029971;28;20110;-57
2023/06/27 10:07:43;;;;;;;16.55;15.00;;;21.20;15.10;;;;;;5029522;28;20048;-57
2023/06/27 10:10:09;;;;;;;12.98;10.85;;;21.20;5.10;;;;;;5029886;28;20491;-58
2023/06/27 10:12:35;;;;;;;20.35;18.52;;;21.00;13.20;;;;;;5032871;28;20053;-58
2023/06/27 10:15:02;;;;;;;15.90;9.32;;;21.10;26.70;;;;;;5018696;28;20034;-57
2023/06/27 10:17:32;;;;;;;13.77;12.40;;;21.10;22.00;;;;;;5016479;28;20049;-58
2023/06/27 10:19:59;;;;;;;11.55;9.32;;;21.10;32.60;;;;;;5028128;28;20037;-57
2023/06/27 10:22:29;;;;;;;11.30;7.80;;;21.00;23.20;;;;;;5029941;28;20061;-57
2023/06/27 10:24:59;;;;;;;16.75;12.88;;;21.10;20.20;;;;;;5028313;28;20064;-57
2023/06/27 10:27:25;;;;;;;7.95;5.53;;;21.20;25.30;;;;;;5029671;28;20520;-57
2023/06/27 10:29:51;;;;;;;15.70;9.95;;;21.00;11.30;;;;;;5029932;28;20037;-57
2023/06/27 10:32:18;;;;;;;13.05;9.15;;;20.70;14.40;;;;;;5029924;28;20111;-57
2023/06/27 10:34:45;;;;;;;21.52;19.45;;;20.50;17.60;;;;;;5034969;28;20411;-57
2023/06/27 10:37:24;;;;;;;20.08;18.27;;;20.40;21.50;;;;;;5050731;28;20134;-57
2023/06/27 10:39:57;;;;;;;16.83;15.13;;;20.50;37.10;;;;;;5019600;28;20092;-57
2023/06/27 10:42:23;;;;;;;13.63;8.50;;;20.80;43.40;;;;;;5020980;28;20049;-57
2023/06/27 10:45:04;;;;;;;8.95;5.53;;;21.00;24.40;;;;;;5029515;28;20053;-57
2023/06/27 10:47:43;;;;;;;10.65;3.75;;;20.90;8.80;;;;;;5029731;28;20037;-57
2023/06/27 10:50:12;;;;;;;7.40;3.20;;;20.70;2.00;;;;;;5029659;28;20520;-57
2023/06/27 10:52:39;;;;;;;6.32;3.28;;;20.50;1.00;;;;;;5062138;28;20084;-57
2023/06/27 10:55:18;;;;;;;7.47;4.40;;;20.40;1.00;;;;;;5028188;28;20121;-57
2023/06/27 10:58:13;;;;;;;10.35;4.30;;;20.40;1.00;;;;;;5034668;28;20045;-57
2023/06/27 11:00:44;;;;;;;7.97;3.22;;;20.40;1.00;;;;;;5028722;28;20038;-57
2023/06/27 11:03:10;;;;;;;11.32;3.67;;;20.60;1.00;;;;;;5025854;28;20083;-57
2023/06/27 11:05:58;;;;;;;6.03;2.85;;;20.70;1.00;;;;;;5033102;28;20033;-57
2023/06/27 11:08:28;;;;;;;10.07;3.70;;;20.60;1.00;;;;;;5033462;28;20049;-57
2023/06/27 11:10:59;;;;;;;12.30;3.92;;;20.70;1.00;;;;;;5020282;28;20049;-57
2023/06/27 11:13:29;;;;;;;12.02;4.65;;;21.10;5.00;;;;;;5013162;28;20049;-57
2023/06/27 11:15:56;;;;;;;10.15;4.88;;;21.60;1.30;;;;;;5031036;28;20045;-57
2023/06/27 11:18:25;;;;;;;7.13;2.85;;;21.60;2.00;;;;;;5033095;28;20042;-57
2023/06/27 11:20:51;;;;;;;12.40;4.03;;;21.80;1.00;;;;;;5032047;28;20051;-57
2023/06/27 11:23:18;;;;;;;11.65;9.65;;;21.70;1.00;;;;;;5032250;28;20034;-58
2023/06/27 11:25:46;;;;;;;12.15;5.55;;;21.30;1.30;;;;;;5030886;28;20049;-57
2023/06/27 11:28:16;;;;;;;8.20;3.55;;;21.00;1.00;;;;;;5032667;28;20288;-57
2023/06/27 11:30:42;;;;;;;8.88;5.28;;;20.90;1.00;;;;;;5032942;28;20087;-57
2023/06/27 11:33:08;;;;;;;16.65;15.02;;;20.90;1.00;;;;;;5032832;28;20077;-58
2023/06/27 11:35:35;;;;;;;20.38;12.35;;;20.90;28.30;;;;;;5032576;28;20041;-57
2023/06/27 11:38:05;;;;;;;14.45;8.23;;;21.20;44.60;;;;;;5021486;28;20084;-57
2023/06/27 11:40:30;;;;;;;12.40;10.45;;;21.20;39.80;;;;;;5025790;28;20045;-57
2023/06/27 11:43:00;;;;;;;12.30;4.45;;;21.10;22.90;;;;;;5032647;28;20451;-57
2023/06/27 11:45:26;;;;;;;11.05;5.03;;;21.30;16.50;;;;;;5032548;28;20132;-57
2023/06/27 11:47:53;;;;;;;10.93;6.82;;;21.40;13.10;;;;;;5032493;28;20091;-57
2023/06/27 11:50:19;;;;;;;9.70;3.28;;;21.00;7.20;;;;;;5047568;28;20041;-57
2023/06/27 11:52:47;;;;;;;7.32;4.25;;;20.60;1.00;;;;;;5031082;28;20073;-57
2023/06/27 11:55:13;;;;;;;10.75;5.43;;;20.50;1.00;;;;;;5032243;28;20060;-57
2023/06/27 11:57:45;;;;;;;10.43;5.38;;;20.40;1.00;;;;;;5032278;28;20049;-57
2023/06/27 12:00:19;;;;;;;8.75;4.63;;;20.40;1.00;;;;;;5032381;28;20565;-57
2023/06/27 12:02:49;;;;;;;10.15;4.40;;;20.50;1.00;;;;;;5032286;28;20095;-57
2023/06/27 12:05:16;;;;;;;14.25;6.68;;;20.60;1.00;;;;;;5032212;28;20049;-57
2023/06/27 12:08:05;;;;;;;15.25;7.82;;;20.50;5.30;;;;;;5030798;28;20048;-57
2023/06/27 12:10:49;;;;;;;10.88;4.65;;;20.80;20.10;;;;;;5028385;28;20099;-57
2023/06/27 12:13:14;;;;;;;9.75;3.28;;;20.60;6.10;;;;;;5064413;28;20446;-57
2023/06/27 12:15:47;;;;;;;8.52;3.95;;;20.50;1.00;;;;;;5032571;28;20084;-56
2023/06/27 12:18:23;;;;;;;12.38;4.97;;;20.50;1.00;;;;;;5031803;28;20037;-58
2023/06/27 12:20:51;;;;;;;7.72;3.30;;;20.70;13.10;;;;;;5031477;28;20103;-57
2023/06/27 12:23:17;;;;;;;9.93;3.28;;;21.00;1.00;;;;;;5031919;28;20041;-57
2023/06/27 12:25:44;;;;;;;9.30;2.95;;;20.70;1.00;;;;;;5031219;28;20045;-57
2023/06/27 12:28:11;;;;;;;6.95;2.78;;;20.80;1.00;;;;;;5031752;28;20034;-57
2023/06/27 12:30:36;;;;;;;6.90;3.05;;;21.10;1.00;;;;;;5024883;28;20029;-57
2023/06/27 12:33:02;;;;;;;6.22;2.63;;;20.80;1.00;;;;;;5027091;28;20587;-57
2023/06/27 12:35:28;;;;;;;16.58;3.90;;;20.90;1.00;;;;;;5031274;28;20128;-57
2023/06/27 12:37:54;;;;;;;11.02;3.67;;;20.90;1.00;;;;;;5031471;28;20117;-57